Time;durP1;ratioP1;P1;durP2;ratioP2;P2;SDS_P1;SDS_P2;PMS_P1;PMS_P2;Temp;Humidity;BMP_temperature;BMP_pressure;BME280_temperature;BME280_humidity;BME280_pressure;Samples;Min_cycle;Max_cycle;Signal;HPM_P1;HPM_P2
2021/06/20 00:01:38;;;;;;;127.20;48.65;;;;;;;17.43;100.00;100670.53;5251422;28;20028;-85
2021/06/20 00:04:08;;;;;;;127.60;50.75;;;;;;;17.42;100.00;100687.81;5258138;28;20024;-85
2021/06/20 00:06:39;;;;;;;138.85;51.50;;;;;;;17.41;100.00;100692.41;5270955;28;20024;-85
2021/06/20 00:09:11;;;;;;;122.63;50.42;;;;;;;17.32;100.00;100694.56;5242891;28;20035;-85
2021/06/20 00:11:44;;;;;;;133.10;49.05;;;;;;;17.29;100.00;100702.28;5255249;28;20016;-85
2021/06/20 00:14:15;;;;;;;138.13;52.40;;;;;;;17.29;100.00;100705.81;5241718;28;20113;-85
2021/06/20 00:16:46;;;;;;;129.88;50.22;;;;;;;17.29;100.00;100691.44;5264106;28;20028;-85
2021/06/20 00:19:16;;;;;;;124.00;49.97;;;;;;;17.27;100.00;100679.94;5263454;28;20482;-85
2021/06/20 00:21:47;;;;;;;119.75;48.17;;;;;;;17.26;100.00;100679.13;5257684;28;20028;-85
2021/06/20 00:24:17;;;;;;;121.45;48.35;;;;;;;17.23;100.00;100674.16;5238149;28;20028;-85
2021/06/20 00:26:48;;;;;;;115.68;46.45;;;;;;;17.23;100.00;100657.88;5258661;28;20503;-85
2021/06/20 00:29:18;;;;;;;113.80;46.45;;;;;;;17.20;100.00;100627.66;5257127;28;20495;-85
2021/06/20 00:31:49;;;;;;;110.68;44.85;;;;;;;17.17;100.00;100614.50;5270861;28;20078;-85
2021/06/20 00:34:19;;;;;;;115.35;46.92;;;;;;;17.19;100.00;100621.41;5253883;28;20162;-85
2021/06/20 00:36:50;;;;;;;110.13;47.10;;;;;;;17.25;100.00;100623.25;5251957;28;20027;-85
2021/06/20 00:39:20;;;;;;;110.43;45.10;;;;;;;17.19;100.00;100629.53;5251890;28;20329;-85
2021/06/20 00:41:51;;;;;;;108.32;44.15;;;;;;;17.18;100.00;100635.19;5261889;28;20387;-85
2021/06/20 00:44:21;;;;;;;103.10;44.03;;;;;;;17.15;100.00;100644.56;5256938;28;20088;-85
2021/06/20 00:46:52;;;;;;;94.63;40.45;;;;;;;17.14;100.00;100661.03;5257835;28;20021;-85
2021/06/20 00:49:22;;;;;;;100.15;41.67;;;;;;;17.13;100.00;100668.34;5263108;28;20270;-85
2021/06/20 00:51:53;;;;;;;101.35;42.45;;;;;;;17.07;100.00;100666.50;5263375;28;20024;-85
2021/06/20 00:54:23;;;;;;;97.53;41.53;;;;;;;17.05;100.00;100672.09;5258935;28;20184;-85
2021/06/20 00:56:54;;;;;;;97.55;42.67;;;;;;;17.05;100.00;100660.44;5269411;28;20038;-85
2021/06/20 00:59:24;;;;;;;95.63;42.78;;;;;;;17.09;100.00;100648.97;5260391;28;20023;-85
2021/06/20 01:01:55;;;;;;;94.90;40.50;;;;;;;17.09;100.00;100658.97;5267706;28;20020;-85
2021/06/20 01:04:26;;;;;;;97.32;39.33;;;;;;;17.02;100.00;100671.72;5251186;28;20024;-85
2021/06/20 01:06:56;;;;;;;91.95;39.95;;;;;;;17.00;100.00;100679.22;5262759;28;20016;-84
2021/06/20 01:09:27;;;;;;;92.20;40.10;;;;;;;16.95;100.00;100666.31;5247088;28;20112;-85
2021/06/20 01:11:58;;;;;;;94.95;41.42;;;;;;;16.95;100.00;100641.09;5267326;28;20113;-85
2021/06/20 01:14:28;;;;;;;97.25;40.10;;;;;;;16.96;100.00;100662.53;5268166;28;20055;-85
2021/06/20 01:16:59;;;;;;;88.40;38.40;;;;;;;16.93;100.00;100673.00;5254679;28;20086;-85
2021/06/20 01:19:31;;;;;;;83.97;37.20;;;;;;;16.95;100.00;100687.16;5253685;28;20078;-85
2021/06/20 01:22:28;;;;;;;83.88;37.05;;;;;;;16.93;100.00;100668.41;5258724;28;20032;-85
2021/06/20 01:25:21;;;;;;;78.70;36.13;;;;;;;16.91;100.00;100681.31;5255124;28;20052;-85
2021/06/20 01:27:57;;;;;;;73.20;32.75;;;;;;;16.82;100.00;100696.16;5252987;28;20066;-85
2021/06/20 01:30:30;;;;;;;82.22;35.88;;;;;;;16.77;100.00;100706.78;5256309;28;20028;-85
2021/06/20 01:33:04;;;;;;;81.82;36.65;;;;;;;16.82;100.00;100707.81;5247083;28;20116;-85
2021/06/20 01:35:35;;;;;;;82.30;36.05;;;;;;;16.76;100.00;100711.34;5260761;28;20088;-85
2021/06/20 01:38:07;;;;;;;78.35;34.60;;;;;;;16.77;100.00;100713.03;5252711;28;20036;-85
2021/06/20 01:40:39;;;;;;;75.00;35.50;;;;;;;16.80;100.00;100718.00;5259775;28;20063;-85
2021/06/20 01:43:10;;;;;;;89.80;37.05;;;;;;;16.77;100.00;100713.03;5254960;28;20016;-85
2021/06/20 01:45:41;;;;;;;81.90;36.60;;;;;;;16.79;100.00;100720.94;5264335;28;20035;-85
2021/06/20 01:48:12;;;;;;;87.78;37.40;;;;;;;16.69;100.00;100731.34;5246218;28;20264;-85
2021/06/20 01:50:43;;;;;;;91.78;37.20;;;;;;;16.73;100.00;100743.47;5240910;28;20024;-85
2021/06/20 01:53:17;;;;;;;86.28;35.17;;;;;;;16.69;100.00;100753.84;5266766;28;20497;-85
2021/06/20 01:55:48;;;;;;;88.55;37.00;;;;;;;16.68;100.00;100744.03;5247385;28;20025;-85
2021/06/20 01:58:19;;;;;;;80.82;34.65;;;;;;;16.69;100.00;100743.00;5258792;28;20024;-85
2021/06/20 02:00:52;;;;;;;79.13;35.15;;;;;;;16.75;100.00;100723.22;5266205;28;20429;-86
2021/06/20 02:03:27;;;;;;;88.43;36.17;;;;;;;16.69;100.00;100726.75;5265807;28;20023;-85
2021/06/20 02:06:00;;;;;;;92.30;37.03;;;;;;;16.71;100.00;100721.13;5242172;28;20116;-85
2021/06/20 02:08:33;;;;;;;94.05;38.35;;;;;;;16.64;100.00;100726.53;5249919;28;20127;-85
2021/06/20 02:11:04;;;;;;;86.40;36.92;;;;;;;16.61;100.00;100726.94;5266558;28;20441;-85
2021/06/20 02:13:34;;;;;;;88.60;36.85;;;;;;;16.68;100.00;100726.97;5259513;28;20120;-85
2021/06/20 02:16:05;;;;;;;84.55;34.25;;;;;;;16.68;100.00;100729.69;5258573;28;20070;-85
2021/06/20 02:18:36;;;;;;;85.97;35.78;;;;;;;16.66;100.00;100721.75;5245102;28;20107;-85
2021/06/20 02:21:06;;;;;;;90.78;38.67;;;;;;;16.61;100.00;100728.81;5246515;28;20023;-85
2021/06/20 02:23:37;;;;;;;92.32;35.60;;;;;;;16.61;100.00;100721.53;5256869;28;20028;-85
2021/06/20 02:26:07;;;;;;;94.28;36.50;;;;;;;16.58;100.00;100725.50;5247924;28;20065;-85
2021/06/20 02:28:38;;;;;;;89.97;37.10;;;;;;;16.60;100.00;100729.88;5255266;28;20384;-85
2021/06/20 02:31:08;;;;;;;102.72;38.85;;;;;;;16.61;100.00;100726.94;5244921;28;20028;-85
2021/06/20 02:33:39;;;;;;;99.72;39.70;;;;;;;16.58;100.00;100722.78;5244901;28;20494;-85
2021/06/20 02:36:09;;;;;;;97.28;39.60;;;;;;;16.57;100.00;100718.44;5244358;28;20021;-85
2021/06/20 02:38:39;;;;;;;105.35;40.47;;;;;;;16.57;100.00;100731.13;5246613;28;20017;-85
2021/06/20 02:41:10;;;;;;;100.78;38.35;;;;;;;16.59;100.00;100731.75;5257892;28;20032;-85
2021/06/20 02:43:40;;;;;;;114.75;43.45;;;;;;;16.58;100.00;100730.09;5258504;28;20020;-85
2021/06/20 02:46:11;;;;;;;105.32;39.38;;;;;;;16.58;100.00;100728.22;5244777;28;20029;-85
2021/06/20 02:48:41;;;;;;;99.25;41.05;;;;;;;16.58;100.00;100730.91;5246742;28;20039;-85
2021/06/20 02:51:12;;;;;;;112.70;41.35;;;;;;;16.58;100.00;100724.69;5264953;28;20474;-85
2021/06/20 02:53:43;;;;;;;111.63;40.30;;;;;;;16.59;100.00;100718.22;5249276;28;20037;-85
2021/06/20 02:56:13;;;;;;;115.35;39.63;;;;;;;16.56;100.00;100716.75;5255099;28;20374;-85
2021/06/20 02:58:43;;;;;;;114.47;43.05;;;;;;;16.57;100.00;100712.19;5247733;28;20027;-85
2021/06/20 03:01:14;;;;;;;114.88;40.35;;;;;;;16.56;100.00;100699.66;5255938;28;20020;-85
2021/06/20 03:03:45;;;;;;;111.60;40.78;;;;;;;16.56;100.00;100705.91;5264909;28;20016;-85
2021/06/20 03:06:15;;;;;;;110.68;40.22;;;;;;;16.53;100.00;100716.34;5264681;28;20049;-85
2021/06/20 03:08:46;;;;;;;114.75;41.63;;;;;;;16.51;100.00;100713.81;5258177;28;20021;-85
2021/06/20 03:11:19;;;;;;;113.50;42.05;;;;;;;16.51;100.00;100719.25;5258245;28;20016;-85
2021/06/20 03:13:50;;;;;;;119.22;43.40;;;;;;;16.54;100.00;100731.53;5265150;28;20035;-85
2021/06/20 03:16:21;;;;;;;124.60;42.90;;;;;;;16.53;100.00;100724.47;5251142;28;20039;-85
2021/06/20 03:18:52;;;;;;;129.25;45.13;;;;;;;16.53;100.00;100732.59;5255793;28;20016;-85
2021/06/20 03:21:22;;;;;;;162.80;52.60;;;;;;;16.55;100.00;100722.38;5260551;28;20376;-85
2021/06/20 03:23:53;;;;;;;166.90;53.08;;;;;;;16.54;100.00;100715.28;5265039;28;20514;-85
2021/06/20 03:26:24;;;;;;;168.77;51.72;;;;;;;16.52;100.00;100715.50;5260340;28;20035;-85
2021/06/20 03:28:58;;;;;;;174.30;53.55;;;;;;;16.47;100.00;100726.13;5255414;28;20024;-85
2021/06/20 03:31:29;;;;;;;185.00;55.47;;;;;;;16.42;100.00;100722.38;5264992;28;20047;-85
2021/06/20 03:34:01;;;;;;;210.95;59.30;;;;;;;16.39;100.00;100729.03;5251368;28;20025;-85
2021/06/20 03:36:31;;;;;;;207.55;59.22;;;;;;;16.41;100.00;100731.53;5257535;28;20494;-85
2021/06/20 03:39:03;;;;;;;215.32;61.28;;;;;;;16.45;100.00;100730.06;5249795;28;20035;-85
2021/06/20 03:41:34;;;;;;;206.77;55.90;;;;;;;16.52;100.00;100734.47;5254901;28;20024;-85
2021/06/20 03:44:06;;;;;;;203.93;57.92;;;;;;;16.55;100.00;100738.63;5261029;28;20027;-85
2021/06/20 03:46:37;;;;;;;199.00;54.78;;;;;;;16.62;100.00;100741.31;5253545;28;20024;-85
2021/06/20 03:49:08;;;;;;;193.93;55.10;;;;;;;16.67;100.00;100750.50;5262855;28;20379;-85
2021/06/20 03:51:39;;;;;;;173.73;53.60;;;;;;;16.71;100.00;100759.91;5251698;28;20376;-85
2021/06/20 03:54:09;;;;;;;176.10;54.42;;;;;;;16.75;100.00;100758.44;5250645;28;20092;-85
2021/06/20 03:56:40;;;;;;;163.73;50.08;;;;;;;16.82;100.00;100758.47;5264271;28;20016;-85
2021/06/20 03:59:11;;;;;;;141.63;44.97;;;;;;;16.88;100.00;100768.47;5243532;28;20162;-85
2021/06/20 04:01:41;;;;;;;154.15;48.53;;;;;;;16.91;100.00;100767.19;5243512;28;20097;-85
2021/06/20 04:04:12;;;;;;;146.70;45.08;;;;;;;16.93;100.00;100773.25;5252416;28;20111;-85
2021/06/20 04:06:42;;;;;;;134.23;43.60;;;;;;;17.01;100.00;100773.84;5260714;28;20032;-85
2021/06/20 04:09:13;;;;;;;133.40;44.05;;;;;;;17.04;100.00;100778.03;5253892;28;20387;-85
2021/06/20 04:11:46;;;;;;;114.18;40.72;;;;;;;17.07;100.00;100794.72;5259863;28;20016;-85
2021/06/20 04:14:17;;;;;;;105.13;40.15;;;;;;;17.09;100.00;100797.19;5256445;28;20032;-85
2021/06/20 04:16:47;;;;;;;116.07;39.67;;;;;;;17.11;100.00;100811.38;5258311;28;20035;-85
2021/06/20 04:19:17;;;;;;;96.05;37.33;;;;;;;17.18;100.00;100820.34;5256632;28;20068;-85
2021/06/20 04:21:48;;;;;;;103.13;36.17;;;;;;;17.19;100.00;100813.03;5256940;28;20028;-85
2021/06/20 04:24:18;;;;;;;92.53;36.42;;;;;;;17.25;100.00;100804.06;5258103;28;20031;-85
2021/06/20 04:26:49;;;;;;;84.57;34.60;;;;;;;17.24;100.00;100803.22;5264241;28;20028;-85
2021/06/20 04:29:20;;;;;;;77.68;32.38;;;;;;;17.29;100.00;100797.16;5260711;28;20111;-85
2021/06/20 04:31:51;;;;;;;74.40;32.10;;;;;;;17.33;100.00;100803.84;5243633;28;20146;-85
2021/06/20 04:34:21;;;;;;;72.45;30.73;;;;;;;17.33;100.00;100796.53;5247531;28;20049;-85
2021/06/20 04:36:52;;;;;;;65.60;29.35;;;;;;;17.43;100.00;100803.41;5254871;28;20077;-85
2021/06/20 04:39:22;;;;;;;61.78;27.90;;;;;;;17.41;100.00;100805.47;5245011;28;20068;-85
2021/06/20 04:41:53;;;;;;;59.10;27.27;;;;;;;17.44;100.00;100789.63;5239430;28;20063;-85
2021/06/20 04:44:42;;;;;;;67.25;29.15;;;;;;;17.54;100.00;100794.59;5247582;28;20032;-85
2021/06/20 04:47:15;;;;;;;52.95;26.05;;;;;;;17.59;100.00;100789.38;5249785;28;20091;-85
2021/06/20 04:49:46;;;;;;;53.13;24.38;;;;;;;17.66;100.00;100800.19;5267706;28;20080;-85
2021/06/20 04:52:16;;;;;;;53.30;26.23;;;;;;;17.67;100.00;100793.72;5249333;28;20028;-85
2021/06/20 04:54:50;;;;;;;54.15;25.58;;;;;;;17.64;100.00;100797.69;5247113;28;20318;-85
2021/06/20 04:57:27;;;;;;;51.95;26.23;;;;;;;17.66;100.00;100813.75;5251122;28;20050;-85
2021/06/20 05:00:01;;;;;;;59.97;27.83;;;;;;;17.68;100.00;100826.06;5256250;28;20025;-85
2021/06/20 05:02:32;;;;;;;58.92;26.65;;;;;;;17.69;100.00;100822.31;5263964;28;20463;-85
2021/06/20 05:05:05;;;;;;;58.25;26.85;;;;;;;17.70;100.00;100815.84;5253386;28;20016;-86
2021/06/20 05:07:36;;;;;;;56.45;27.23;;;;;;;17.81;100.00;100815.19;5265096;28;20036;-85
2021/06/20 05:10:07;;;;;;;57.60;26.20;;;;;;;17.78;100.00;100818.34;5262787;28;20016;-86
2021/06/20 05:12:37;;;;;;;56.40;28.30;;;;;;;17.73;100.00;100814.63;5283474;28;20028;-85
2021/06/20 05:15:08;;;;;;;53.42;25.17;;;;;;;17.74;100.00;100822.53;5269309;28;20024;-85
2021/06/20 05:17:39;;;;;;;56.45;26.23;;;;;;;17.75;100.00;100817.94;5269598;28;20499;-85
2021/06/20 05:20:10;;;;;;;43.10;23.08;;;;;;;17.79;100.00;100830.88;5236983;28;20082;-86
2021/06/20 05:22:40;;;;;;;48.72;23.55;;;;;;;17.82;100.00;100835.88;5269735;28;20034;-86
2021/06/20 05:25:11;;;;;;;49.08;23.55;;;;;;;17.78;100.00;100836.53;5264160;28;20028;-85
2021/06/20 05:27:42;;;;;;;46.90;22.92;;;;;;;17.77;100.00;100843.81;5261031;28;20031;-85
2021/06/20 05:30:13;;;;;;;45.65;23.00;;;;;;;17.73;100.00;100836.31;5248366;28;20021;-85
2021/06/20 05:32:44;;;;;;;43.40;21.90;;;;;;;17.65;100.00;100833.81;5261078;28;20119;-86
2021/06/20 05:35:14;;;;;;;44.85;23.05;;;;;;;17.59;100.00;100824.63;5259940;28;20024;-85
2021/06/20 05:37:45;;;;;;;48.53;22.73;;;;;;;17.63;100.00;100823.16;5266129;28;20020;-85
2021/06/20 05:40:15;;;;;;;45.35;22.48;;;;;;;17.64;100.00;100816.69;5268470;28;20049;-85
2021/06/20 05:42:46;;;;;;;40.13;21.85;;;;;;;17.58;100.00;100812.97;5255871;28;20028;-85
2021/06/20 05:45:16;;;;;;;48.80;21.70;;;;;;;17.50;100.00;100809.63;5250685;28;20067;-85
2021/06/20 05:47:48;;;;;;;45.60;21.58;;;;;;;17.46;100.00;100802.97;5264118;28;20194;-85
2021/06/20 05:50:19;;;;;;;41.17;20.10;;;;;;;17.82;100.00;100811.47;5272087;28;20016;-86
2021/06/20 05:52:49;;;;;;;34.50;18.85;;;;;;;19.28;100.00;100815.91;5273040;28;20020;-85
2021/06/20 05:55:20;;;;;;;30.58;16.92;;;;;;;20.18;100.00;100807.97;5258560;28;20024;-86
2021/06/20 05:57:50;;;;;;;28.13;16.60;;;;;;;21.22;100.00;100815.78;5251907;28;20056;-85
2021/06/20 06:00:21;;;;;;;32.78;16.92;;;;;;;21.69;100.00;100808.44;5238646;28;20035;-86
2021/06/20 06:02:52;;;;;;;28.38;15.88;;;;;;;22.07;100.00;100809.75;5261061;28;20032;-86
2021/06/20 06:05:23;;;;;;;31.70;15.45;;;;;;;22.73;100.00;100812.88;5253721;28;20030;-85
2021/06/20 06:07:55;;;;;;;29.48;16.33;;;;;;;23.42;100.00;100809.88;5251957;28;20016;-85
2021/06/20 06:10:26;;;;;;;25.90;15.10;;;;;;;23.70;100.00;100815.25;5229747;28;20052;-85
2021/06/20 06:12:57;;;;;;;28.05;16.10;;;;;;;24.15;100.00;100821.53;5250099;28;20372;-85
2021/06/20 06:15:29;;;;;;;25.88;15.98;;;;;;;23.87;100.00;100826.13;5267392;28;20023;-85
2021/06/20 06:17:59;;;;;;;24.83;15.52;;;;;;;23.87;100.00;100828.06;5235403;28;20426;-84
2021/06/20 06:20:30;;;;;;;24.90;15.05;;;;;;;24.57;100.00;100823.66;5257849;28;20020;-84
2021/06/20 06:23:00;;;;;;;23.42;15.13;;;;;;;24.85;100.00;100811.53;5263307;28;20467;-86
2021/06/20 06:25:31;;;;;;;28.42;14.77;;;;;;;24.06;100.00;100831.31;5233594;28;20738;-85
2021/06/20 06:28:01;;;;;;;29.52;16.00;;;;;;;24.06;100.00;100831.31;5245976;28;20036;-84
2021/06/20 06:30:32;;;;;;;26.23;15.50;;;;;;;22.69;100.00;100831.72;5246796;28;20017;-84
2021/06/20 06:33:05;;;;;;;29.42;16.50;;;;;;;22.38;100.00;100824.84;5251534;28;20028;-84
2021/06/20 06:35:35;;;;;;;29.77;16.10;;;;;;;22.10;100.00;100819.38;5265796;28;20032;-84
2021/06/20 06:38:06;;;;;;;28.30;16.05;;;;;;;22.17;100.00;100817.34;5262554;28;20076;-84
2021/06/20 06:40:36;;;;;;;26.77;15.45;;;;;;;22.49;100.00;100817.66;5234623;28;20420;-84
2021/06/20 06:43:07;;;;;;;23.33;14.93;;;;;;;22.83;100.00;100823.16;5256681;28;20099;-84
2021/06/20 06:45:37;;;;;;;23.77;13.73;;;;;;;22.40;100.00;100828.19;5230232;28;20067;-84
2021/06/20 06:48:08;;;;;;;24.95;13.75;;;;;;;22.11;100.00;100818.31;5266344;28;20020;-84
2021/06/20 06:50:38;;;;;;;27.73;13.98;;;;;;;22.68;100.00;100821.00;5263768;28;20016;-84
2021/06/20 06:53:09;;;;;;;24.60;13.95;;;;;;;22.52;100.00;100825.38;5252192;28;20560;-84
2021/06/20 06:55:40;;;;;;;23.33;13.20;;;;;;;22.49;100.00;100832.19;5245850;28;20090;-85
2021/06/20 06:58:10;;;;;;;19.67;12.25;;;;;;;22.26;100.00;100829.53;5256030;28;20024;-84
2021/06/20 07:00:41;;;;;;;22.45;13.00;;;;;;;21.68;100.00;100834.06;5246842;28;20021;-84
2021/06/20 07:03:11;;;;;;;19.77;11.85;;;;;;;21.03;100.00;100830.59;5266112;28;20027;-84
2021/06/20 07:05:42;;;;;;;20.85;12.05;;;;;;;20.80;100.00;100843.16;5258994;28;20032;-84
2021/06/20 07:08:13;;;;;;;23.63;12.40;;;;;;;20.58;100.00;100844.72;5254485;28;20020;-84
2021/06/20 07:10:43;;;;;;;21.92;11.75;;;;;;;20.53;100.00;100848.16;5266878;28;20059;-84
2021/06/20 07:13:14;;;;;;;16.33;10.65;;;;;;;20.84;100.00;100847.06;5253995;28;20496;-84
2021/06/20 07:15:44;;;;;;;18.05;10.30;;;;;;;20.99;100.00;100843.06;5253296;28;20092;-84
2021/06/20 07:18:15;;;;;;;17.38;10.27;;;;;;;21.09;100.00;100844.16;5248213;28;20510;-84
2021/06/20 07:20:46;;;;;;;13.63;9.73;;;;;;;21.48;100.00;100843.69;5250991;28;20060;-84
2021/06/20 07:23:17;;;;;;;18.45;10.40;;;;;;;21.46;100.00;100849.41;5251558;28;20084;-84
2021/06/20 07:25:47;;;;;;;16.10;9.60;;;;;;;21.58;100.00;100844.75;5251750;28;20063;-84
2021/06/20 07:28:18;;;;;;;19.42;9.18;;;;;;;21.39;100.00;100846.81;5250112;28;20375;-84
2021/06/20 07:30:49;;;;;;;13.95;7.53;;;;;;;21.49;100.00;100851.66;5246761;28;20549;-84
2021/06/20 07:33:22;;;;;;;12.07;6.90;;;;;;;21.89;100.00;100845.44;5249735;28;20515;-84
2021/06/20 07:35:52;;;;;;;9.88;5.90;;;;;;;22.16;100.00;100848.47;5244047;28;20020;-84
2021/06/20 07:38:23;;;;;;;11.88;4.95;;;;;;;22.31;100.00;100846.03;5246977;28;20028;-85
2021/06/20 07:40:54;;;;;;;7.55;4.50;;;;;;;22.52;100.00;100839.03;5245450;28;20305;-84
2021/06/20 07:43:24;;;;;;;8.95;5.10;;;;;;;22.51;100.00;100842.03;5256810;28;20043;-85
2021/06/20 07:45:56;;;;;;;8.25;4.97;;;;;;;22.40;100.00;100830.91;5243480;28;20043;-84
2021/06/20 07:48:28;;;;;;;7.95;5.93;;;;;;;22.23;100.00;100843.69;5243204;28;20025;-85
2021/06/20 07:50:58;;;;;;;9.43;5.53;;;;;;;22.47;100.00;100842.50;5256982;28;20519;-84
2021/06/20 07:53:29;;;;;;;10.38;5.55;;;;;;;22.57;100.00;100844.59;5248843;28;20028;-84
2021/06/20 07:55:59;;;;;;;11.20;5.72;;;;;;;22.64;100.00;100850.75;5243493;28;20024;-84
2021/06/20 07:58:30;;;;;;;8.35;5.60;;;;;;;22.42;100.00;100844.31;5243383;28;20136;-84
2021/06/20 08:01:00;;;;;;;7.97;5.55;;;;;;;22.14;100.00;100851.47;5234850;28;20169;-84
2021/06/20 08:03:33;;;;;;;9.60;5.80;;;;;;;21.91;100.00;100857.75;5246926;28;20085;-84
2021/06/20 08:06:04;;;;;;;7.35;5.32;;;;;;;21.64;100.00;100862.09;5247453;28;20032;-85
2021/06/20 08:08:34;;;;;;;8.82;5.07;;;;;;;21.63;100.00;100874.88;5250682;28;20079;-84
2021/06/20 08:11:05;;;;;;;8.65;4.68;;;;;;;21.80;100.00;100887.84;5250984;28;20017;-84
2021/06/20 08:13:36;;;;;;;6.90;4.88;;;;;;;22.01;100.00;100887.19;5263972;28;20026;-84
2021/06/20 08:16:06;;;;;;;8.00;4.10;;;;;;;22.27;100.00;100896.78;5234266;28;20112;-84
2021/06/20 08:18:36;;;;;;;5.70;3.53;;;;;;;22.47;100.00;100891.72;5259880;28;20225;-84
2021/06/20 08:21:07;;;;;;;8.05;2.92;;;;;;;22.49;100.00;100892.31;5249491;28;20024;-84
2021/06/20 08:23:37;;;;;;;3.55;2.65;;;;;;;22.82;100.00;100892.63;5268041;28;20028;-84
2021/06/20 08:26:08;;;;;;;4.15;2.08;;;;;;;23.17;100.00;100886.97;5268603;28;20111;-85
2021/06/20 08:28:39;;;;;;;3.45;2.03;;;;;;;23.25;100.00;100878.34;5260821;28;20032;-83
2021/06/20 08:31:09;;;;;;;2.60;2.00;;;;;;;23.08;100.00;100882.97;5272365;28;20019;-83
2021/06/20 08:33:40;;;;;;;5.22;2.22;;;;;;;23.50;100.00;100900.66;5276704;28;20039;-83
2021/06/20 08:36:10;;;;;;;3.38;1.80;;;;;;;23.84;100.00;100888.81;5279208;28;20058;-83
2021/06/20 08:38:42;;;;;;;5.72;2.10;;;;;;;23.81;100.00;100894.81;5276245;28;20378;-83
2021/06/20 08:41:14;;;;;;;3.85;2.10;;;;;;;23.90;100.00;100905.09;5258359;28;20092;-83
2021/06/20 08:43:44;;;;;;;2.08;1.88;;;;;;;23.60;100.00;100904.63;5247262;28;20066;-85
2021/06/20 08:46:16;;;;;;;4.93;2.25;;;;;;;23.90;100.00;100913.31;5255628;28;20490;-85
2021/06/20 08:48:47;;;;;;;3.72;1.75;;;;;;;24.09;100.00;100913.81;5267951;28;20016;-85
2021/06/20 08:51:18;;;;;;;2.55;1.40;;;;;;;23.95;100.00;100907.91;5268040;28;20035;-85
2021/06/20 08:53:50;;;;;;;1.92;1.48;;;;;;;24.19;100.00;100893.94;5267775;28;20454;-85
2021/06/20 08:56:20;;;;;;;1.73;1.48;;;;;;;23.68;100.00;100902.28;5268200;28;20024;-85
2021/06/20 08:58:51;;;;;;;2.80;1.55;;;;;;;23.67;100.00;100902.56;5268260;28;20540;-85
2021/06/20 09:01:21;;;;;;;2.88;1.30;;;;;;;23.67;100.00;100897.91;5267970;28;20077;-85
2021/06/20 09:03:52;;;;;;;2.53;1.25;;;;;;;23.43;100.00;100894.50;5267661;28;20487;-85
2021/06/20 09:06:24;;;;;;;3.13;1.50;;;;;;;23.64;100.00;100892.09;5267974;28;20028;-85
2021/06/20 09:09:00;;;;;;;3.97;1.30;;;;;;;23.78;100.00;100901.63;5249286;28;20073;-85
2021/06/20 09:11:34;;;;;;;1.60;1.40;;;;;;;23.93;100.00;100895.50;5252090;28;20055;-85
2021/06/20 09:14:16;;;;;;;6.95;1.65;;;;;;;23.57;100.00;100889.50;5228902;28;20032;-85
2021/06/20 09:16:54;;;;;;;3.58;1.45;;;;;;;23.86;100.00;100887.50;5246672;28;20035;-85
2021/06/20 09:19:32;;;;;;;2.40;1.52;;;;;;;24.02;100.00;100892.09;5267368;28;20028;-83
2021/06/20 09:22:08;;;;;;;3.72;1.50;;;;;;;24.04;100.00;100892.66;5273398;28;20093;-83
2021/06/20 09:24:40;;;;;;;7.43;1.58;;;;;;;24.24;100.00;100894.81;5274027;28;20023;-83
2021/06/20 09:27:14;;;;;;;3.55;1.80;;;;;;;24.18;100.00;100889.53;5274803;28;20047;-83
2021/06/20 09:29:44;;;;;;;1.70;1.50;;;;;;;23.95;100.00;100904.31;5262713;28;20091;-84
2021/06/20 09:32:14;;;;;;;3.42;1.63;;;;;;;23.75;100.00;100889.28;5281244;28;20021;-84
2021/06/20 09:34:50;;;;;;;1.70;1.60;;;;;;;24.10;100.00;100903.66;5260896;28;20043;-84
2021/06/20 09:37:20;;;;;;;4.03;1.40;;;;;;;23.69;100.00;100898.47;5240565;28;20035;-84
2021/06/20 09:39:51;;;;;;;3.17;1.60;;;;;;;23.55;100.00;100901.81;5240477;28;20020;-84
2021/06/20 09:42:21;;;;;;;4.28;1.20;;;;;;;23.49;100.00;100909.09;5258728;28;20031;-84
2021/06/20 09:44:54;;;;;;;2.35;1.45;;;;;;;23.05;100.00;100900.75;5258844;28;20035;-84
2021/06/20 09:47:26;;;;;;;2.58;1.50;;;;;;;22.87;100.00;100899.00;5257481;28;20104;-84
2021/06/20 09:49:57;;;;;;;6.20;1.33;;;;;;;22.89;100.00;100893.31;5268572;28;20045;-84
2021/06/20 09:52:32;;;;;;;1.77;1.48;;;;;;;23.17;100.00;100896.00;5273469;28;20084;-84
2021/06/20 09:55:12;;;;;;;3.85;1.35;;;;;;;23.75;100.00;100905.69;5260061;28;20097;-84
2021/06/20 09:57:45;;;;;;;2.70;1.33;;;;;;;24.25;100.00;100891.00;5254387;28;20115;-83
2021/06/20 10:00:15;;;;;;;2.30;1.10;;;;;;;24.40;100.00;100897.75;5231887;28;20020;-83
2021/06/20 10:02:47;;;;;;;3.50;1.42;;;;;;;24.83;100.00;100896.03;5254296;28;20035;-83
2021/06/20 10:05:17;;;;;;;3.40;1.30;;;;;;;24.88;100.00;100883.19;5249574;28;20028;-83
2021/06/20 10:07:48;;;;;;;2.30;1.15;;;;;;;24.97;100.00;100889.03;5247637;28;20031;-82
2021/06/20 10:10:18;;;;;;;5.22;1.20;;;;;;;25.10;100.00;100888.59;5259099;28;20536;-83
2021/06/20 10:12:48;;;;;;;1.52;0.98;;;;;;;25.26;93.14;100884.09;5246139;28;20020;-83
2021/06/20 10:15:20;;;;;;;1.70;1.33;;;;;;;25.42;100.00;100899.59;5246590;28;20548;-83
2021/06/20 10:17:58;;;;;;;2.33;1.27;;;;;;;25.30;92.75;100896.19;5261876;28;20347;-83
2021/06/20 10:20:35;;;;;;;4.05;1.50;;;;;;;24.89;100.00;100901.28;5238585;28;20044;-83
2021/06/20 10:23:20;;;;;;;5.65;1.77;;;;;;;24.65;100.00;100895.31;5256206;28;20490;-83
2021/06/20 10:25:51;;;;;;;2.60;2.00;;;;;;;24.84;100.00;100883.97;5256845;28;20035;-82
2021/06/20 10:28:31;;;;;;;3.75;1.50;;;;;;;24.33;100.00;100889.72;5261906;28;20084;-83
2021/06/20 10:31:09;;;;;;;2.70;1.23;;;;;;;24.34;100.00;100887.78;5260373;28;20021;-83
2021/06/20 10:33:41;;;;;;;1.45;1.10;;;;;;;24.32;100.00;100898.19;5259688;28;20247;-83
2021/06/20 10:36:13;;;;;;;2.20;1.52;;;;;;;24.35;100.00;100893.03;5271084;28;20521;-83
2021/06/20 10:38:45;;;;;;;6.72;0.98;;;;;;;24.24;100.00;100883.03;5257242;28;20066;-83
2021/06/20 10:41:21;;;;;;;3.20;1.45;;;;;;;24.29;100.00;100886.66;5248042;28;20391;-83
2021/06/20 10:44:00;;;;;;;2.67;1.30;;;;;;;24.39;100.00;100888.72;5248215;28;20043;-83
2021/06/20 10:46:32;;;;;;;3.88;1.40;;;;;;;24.66;100.00;100886.00;5254818;28;20391;-83
2021/06/20 10:49:14;;;;;;;1.50;1.08;;;;;;;24.65;100.00;100881.63;5250388;28;20052;-84
2021/06/20 10:51:45;;;;;;;1.42;1.08;;;;;;;24.98;100.00;100877.78;5251614;28;20019;-83
2021/06/20 10:54:27;;;;;;;3.42;1.13;;;;;;;25.22;100.00;100880.22;5257122;28;20024;-83
2021/06/20 10:57:01;;;;;;;6.72;1.33;;;;;;;24.80;93.13;100883.69;5257732;28;20048;-83
2021/06/20 10:59:31;;;;;;;4.75;1.23;;;;;;;24.62;85.89;100878.53;5253931;28;20425;-83
2021/06/20 11:02:02;;;;;;;3.63;1.23;;;;;;;24.27;100.00;100877.03;5264519;28;20016;-83
2021/06/20 11:04:41;;;;;;;0.70;0.70;;;;;;;24.22;100.00;100857.78;5252762;28;20479;-83
2021/06/20 11:07:27;;;;;;;1.60;1.30;;;;;;;24.52;100.00;100858.16;5230303;28;20034;-83
2021/06/20 11:09:57;;;;;;;;;;;;;;;24.97;100.00;100854.19;5256712;28;20096;-83
2021/06/20 11:12:28;;;;;;;2.80;0.93;;;;;;;25.19;92.85;100853.28;5254538;28;19999;-83
2021/06/20 11:14:58;;;;;;;1.33;1.10;;;;;;;25.34;100.00;100855.31;5251093;28;20077;-83
2021/06/20 11:17:34;;;;;;;3.10;1.20;;;;;;;25.43;89.26;100848.22;5263818;28;20016;-83
2021/06/20 11:20:12;;;;;;;1.60;0.95;;;;;;;25.51;95.14;100834.84;5256417;28;20630;-83
2021/06/20 11:22:42;;;;;;;1.65;1.30;;;;;;;25.76;100.00;100836.94;5239012;28;20527;-83
2021/06/20 11:25:13;;;;;;;3.85;1.13;;;;;;;25.85;82.29;100837.22;5252563;28;20050;-83